sensor_id;sensor_type;location;lat;lon;timestamp;P1;durP1;ratioP1;P2;durP2;ratioP2
45936;SDS011;31649;46.510;6.498;2023-04-24T05:57:10;8.90;;;1.80;;
45936;SDS011;31649;46.510;6.498;2023-04-24T05:59:37;3.47;;;2.92;;
45936;SDS011;31649;46.510;6.498;2023-04-24T06:02:03;2.55;;;1.85;;
45936;SDS011;31649;46.510;6.498;2023-04-24T06:04:29;41.65;;;7.03;;
45936;SDS011;31649;46.510;6.498;2023-04-24T06:06:55;37.67;;;3.15;;
45936;SDS011;31649;46.510;6.498;2023-04-24T06:09:24;55.45;;;13.30;;
45936;SDS011;31649;46.510;6.498;2023-04-24T06:11:50;74.63;;;26.63;;
45936;SDS011;31649;46.510;6.498;2023-04-24T06:14:19;69.15;;;28.40;;
45936;SDS011;31649;46.510;6.498;2023-04-24T06:16:46;82.80;;;33.10;;
45936;SDS011;31649;46.510;6.498;2023-04-24T06:19:11;88.70;;;37.05;;
45936;SDS011;31649;46.510;6.498;2023-04-24T06:21:37;101.40;;;36.55;;
45936;SDS011;31649;46.510;6.498;2023-04-24T06:24:03;69.43;;;31.80;;
45936;SDS011;31649;46.510;6.498;2023-04-24T06:26:29;114.82;;;32.97;;
45936;SDS011;31649;46.510;6.498;2023-04-24T06:28:55;106.80;;;38.88;;
45936;SDS011;31649;46.510;6.498;2023-04-24T06:31:20;94.05;;;32.38;;
45936;SDS011;31649;46.510;6.498;2023-04-24T06:33:48;93.22;;;36.25;;
45936;SDS011;31649;46.510;6.498;2023-04-24T06:36:14;89.43;;;36.03;;
45936;SDS011;31649;46.510;6.498;2023-04-24T06:38:40;66.47;;;32.17;;
45936;SDS011;31649;46.510;6.498;2023-04-24T06:41:06;79.68;;;32.05;;
45936;SDS011;31649;46.510;6.498;2023-04-24T06:43:32;74.97;;;29.52;;
45936;SDS011;31649;46.510;6.498;2023-04-24T06:45:59;73.93;;;29.08;;
45936;SDS011;31649;46.510;6.498;2023-04-24T06:48:25;82.18;;;23.70;;
45936;SDS011;31649;46.510;6.498;2023-04-24T06:50:51;73.38;;;25.92;;
45936;SDS011;31649;46.510;6.498;2023-04-24T06:53:17;141.80;;;27.83;;
45936;SDS011;31649;46.510;6.498;2023-04-24T06:55:43;160.18;;;24.67;;
45936;SDS011;31649;46.510;6.498;2023-04-24T06:58:10;161.35;;;25.30;;
45936;SDS011;31649;46.510;6.498;2023-04-24T07:00:36;79.60;;;18.17;;
45936;SDS011;31649;46.510;6.498;2023-04-24T07:03:01;112.95;;;24.83;;
45936;SDS011;31649;46.510;6.498;2023-04-24T07:05:28;172.98;;;37.72;;
45936;SDS011;31649;46.510;6.498;2023-04-24T07:07:54;183.35;;;36.55;;
45936;SDS011;31649;46.510;6.498;2023-04-24T07:10:19;530.97;;;64.22;;
45936;SDS011;31649;46.510;6.498;2023-04-24T07:12:46;261.48;;;40.17;;
45936;SDS011;31649;46.510;6.498;2023-04-24T07:15:12;186.73;;;34.97;;
45936;SDS011;31649;46.510;6.498;2023-04-24T07:17:37;244.68;;;47.08;;
45936;SDS011;31649;46.510;6.498;2023-04-24T07:20:04;127.32;;;33.72;;
45936;SDS011;31649;46.510;6.498;2023-04-24T07:22:30;678.53;;;83.38;;
45936;SDS011;31649;46.510;6.498;2023-04-24T07:24:56;777.80;;;94.72;;
45936;SDS011;31649;46.510;6.498;2023-04-24T07:27:21;225.27;;;33.33;;
45936;SDS011;31649;46.510;6.498;2023-04-24T07:29:47;152.02;;;29.70;;
45936;SDS011;31649;46.510;6.498;2023-04-24T07:32:13;135.00;;;23.55;;
45936;SDS011;31649;46.510;6.498;2023-04-24T07:34:38;214.27;;;27.67;;
45936;SDS011;31649;46.510;6.498;2023-04-24T07:37:04;216.40;;;32.05;;
45936;SDS011;31649;46.510;6.498;2023-04-24T07:39:29;288.38;;;32.80;;
45936;SDS011;31649;46.510;6.498;2023-04-24T07:41:55;371.60;;;34.13;;
45936;SDS011;31649;46.510;6.498;2023-04-24T07:44:21;249.80;;;27.27;;
45936;SDS011;31649;46.510;6.498;2023-04-24T07:46:46;147.95;;;16.83;;
45936;SDS011;31649;46.510;6.498;2023-04-24T07:49:12;306.50;;;27.85;;
45936;SDS011;31649;46.510;6.498;2023-04-24T07:51:38;376.33;;;36.08;;
45936;SDS011;31649;46.510;6.498;2023-04-24T07:54:05;201.35;;;18.42;;
45936;SDS011;31649;46.510;6.498;2023-04-24T07:56:33;444.80;;;44.08;;
45936;SDS011;31649;46.510;6.498;2023-04-24T07:58:59;148.32;;;17.50;;
45936;SDS011;31649;46.510;6.498;2023-04-24T08:01:26;188.55;;;18.30;;
45936;SDS011;31649;46.510;6.498;2023-04-24T08:03:52;76.55;;;12.35;;
45936;SDS011;31649;46.510;6.498;2023-04-24T08:06:18;118.35;;;21.83;;
45936;SDS011;31649;46.510;6.498;2023-04-24T08:08:44;109.22;;;20.38;;
45936;SDS011;31649;46.510;6.498;2023-04-24T08:11:10;101.72;;;21.38;;
45936;SDS011;31649;46.510;6.498;2023-04-24T08:13:36;58.67;;;20.42;;
45936;SDS011;31649;46.510;6.498;2023-04-24T08:16:02;63.72;;;16.40;;
45936;SDS011;31649;46.510;6.498;2023-04-24T08:18:28;57.88;;;13.10;;
45936;SDS011;31649;46.510;6.498;2023-04-24T08:20:54;101.05;;;12.23;;
45936;SDS011;31649;46.510;6.498;2023-04-24T08:23:20;87.07;;;14.52;;
45936;SDS011;31649;46.510;6.498;2023-04-24T08:25:45;89.68;;;8.95;;
45936;SDS011;31649;46.510;6.498;2023-04-24T08:28:11;27.67;;;4.03;;
45936;SDS011;31649;46.510;6.498;2023-04-24T08:30:37;195.50;;;15.57;;
45936;SDS011;31649;46.510;6.498;2023-04-24T08:33:03;137.70;;;11.52;;
45936;SDS011;31649;46.510;6.498;2023-04-24T08:35:29;124.22;;;9.35;;
45936;SDS011;31649;46.510;6.498;2023-04-24T08:37:54;113.35;;;10.75;;
45936;SDS011;31649;46.510;6.498;2023-04-24T08:40:22;121.70;;;10.73;;
45936;SDS011;31649;46.510;6.498;2023-04-24T08:42:54;51.22;;;6.97;;
45936;SDS011;31649;46.510;6.498;2023-04-24T08:45:22;49.65;;;5.93;;
45936;SDS011;31649;46.510;6.498;2023-04-24T08:47:49;52.67;;;12.98;;
45936;SDS011;31649;46.510;6.498;2023-04-24T08:50:15;51.50;;;13.38;;
45936;SDS011;31649;46.510;6.498;2023-04-24T08:52:41;49.00;;;12.07;;
45936;SDS011;31649;46.510;6.498;2023-04-24T08:55:08;37.10;;;12.68;;
45936;SDS011;31649;46.510;6.498;2023-04-24T08:57:34;50.10;;;10.75;;
45936;SDS011;31649;46.510;6.498;2023-04-24T09:00:03;24.63;;;8.35;;
45936;SDS011;31649;46.510;6.498;2023-04-24T09:02:30;67.95;;;10.25;;
45936;SDS011;31649;46.510;6.498;2023-04-24T09:04:57;70.43;;;9.90;;
45936;SDS011;31649;46.510;6.498;2023-04-24T09:07:24;63.13;;;10.25;;
45936;SDS011;31649;46.510;6.498;2023-04-24T09:09:52;25.75;;;8.00;;
45936;SDS011;31649;46.510;6.498;2023-04-24T09:12:19;28.05;;;7.25;;
45936;SDS011;31649;46.510;6.498;2023-04-24T09:14:46;27.60;;;7.45;;
45936;SDS011;31649;46.510;6.498;2023-04-24T09:17:15;15.65;;;7.60;;
45936;SDS011;31649;46.510;6.498;2023-04-24T09:19:40;25.25;;;7.72;;
45936;SDS011;31649;46.510;6.498;2023-04-24T09:22:07;27.83;;;4.95;;
45936;SDS011;31649;46.510;6.498;2023-04-24T09:24:34;14.57;;;4.30;;
45936;SDS011;31649;46.510;6.498;2023-04-24T09:27:00;14.23;;;4.30;;
45936;SDS011;31649;46.510;6.498;2023-04-24T09:29:27;14.45;;;4.15;;
45936;SDS011;31649;46.510;6.498;2023-04-24T09:31:53;11.63;;;4.13;;
45936;SDS011;31649;46.510;6.498;2023-04-24T09:34:23;9.02;;;3.03;;
45936;SDS011;31649;46.510;6.498;2023-04-24T09:36:51;6.85;;;3.55;;
45936;SDS011;31649;46.510;6.498;2023-04-24T09:39:17;16.77;;;3.47;;
45936;SDS011;31649;46.510;6.498;2023-04-24T09:41:55;11.25;;;3.20;;
45936;SDS011;31649;46.510;6.498;2023-04-24T09:44:26;15.65;;;3.00;;
45936;SDS011;31649;46.510;6.498;2023-04-24T09:46:55;12.48;;;2.97;;
45936;SDS011;31649;46.510;6.498;2023-04-24T09:49:31;8.38;;;3.70;;
45936;SDS011;31649;46.510;6.498;2023-04-24T09:52:07;15.55;;;10.23;;
45936;SDS011;31649;46.510;6.498;2023-04-24T09:54:35;27.08;;;8.38;;
45936;SDS011;31649;46.510;6.498;2023-04-24T09:57:04;22.27;;;7.90;;
45936;SDS011;31649;46.510;6.498;2023-04-24T09:59:32;18.48;;;6.40;;
45936;SDS011;31649;46.510;6.498;2023-04-24T10:01:58;31.50;;;8.20;;
45936;SDS011;31649;46.510;6.498;2023-04-24T10:04:26;17.50;;;6.25;;
45936;SDS011;31649;46.510;6.498;2023-04-24T10:06:53;18.42;;;6.15;;
45936;SDS011;31649;46.510;6.498;2023-04-24T10:09:24;9.07;;;5.55;;
45936;SDS011;31649;46.510;6.498;2023-04-24T10:11:51;13.10;;;6.63;;
45936;SDS011;31649;46.510;6.498;2023-04-24T10:14:24;13.65;;;8.38;;
45936;SDS011;31649;46.510;6.498;2023-04-24T10:16:53;13.45;;;5.95;;
45936;SDS011;31649;46.510;6.498;2023-04-24T10:19:21;6.47;;;3.92;;
45936;SDS011;31649;46.510;6.498;2023-04-24T10:21:50;12.40;;;4.03;;
45936;SDS011;31649;46.510;6.498;2023-04-24T10:24:18;6.70;;;3.70;;
45936;SDS011;31649;46.510;6.498;2023-04-24T10:26:47;10.82;;;2.38;;
45936;SDS011;31649;46.510;6.498;2023-04-24T10:29:14;3.65;;;1.60;;
45936;SDS011;31649;46.510;6.498;2023-04-24T10:31:42;5.43;;;1.25;;
45936;SDS011;31649;46.510;6.498;2023-04-24T10:34:10;10.85;;;1.30;;
45936;SDS011;31649;46.510;6.498;2023-04-24T10:36:38;9.23;;;1.63;;
45936;SDS011;31649;46.510;6.498;2023-04-24T10:39:08;36.13;;;3.35;;
45936;SDS011;31649;46.510;6.498;2023-04-24T10:41:37;14.23;;;1.98;;
45936;SDS011;31649;46.510;6.498;2023-04-24T10:44:07;10.48;;;1.90;;
45936;SDS011;31649;46.510;6.498;2023-04-24T10:46:34;17.77;;;1.45;;
45936;SDS011;31649;46.510;6.498;2023-04-24T10:49:03;8.23;;;1.75;;
45936;SDS011;31649;46.510;6.498;2023-04-24T10:54:41;10.02;;;1.77;;
45936;SDS011;31649;46.510;6.498;2023-04-24T10:59:51;6.97;;;3.40;;
45936;SDS011;31649;46.510;6.498;2023-04-24T11:02:37;36.25;;;24.52;;
45936;SDS011;31649;46.510;6.498;2023-04-24T11:05:05;20.45;;;12.68;;
45936;SDS011;31649;46.510;6.498;2023-04-24T11:10:37;32.67;;;8.20;;
45936;SDS011;31649;46.510;6.498;2023-04-24T11:13:04;29.38;;;8.10;;
45936;SDS011;31649;46.510;6.498;2023-04-24T11:15:29;8.10;;;3.70;;
45936;SDS011;31649;46.510;6.498;2023-04-24T11:17:55;14.75;;;5.25;;
45936;SDS011;31649;46.510;6.498;2023-04-24T11:20:23;11.50;;;3.58;;
45936;SDS011;31649;46.510;6.498;2023-04-24T11:22:52;7.20;;;2.67;;
45936;SDS011;31649;46.510;6.498;2023-04-24T11:25:23;4.13;;;3.08;;
45936;SDS011;31649;46.510;6.498;2023-04-24T11:27:50;4.45;;;2.35;;
45936;SDS011;31649;46.510;6.498;2023-04-24T11:30:29;36.78;;;4.00;;
45936;SDS011;31649;46.510;6.498;2023-04-24T11:32:54;26.80;;;2.95;;
45936;SDS011;31649;46.510;6.498;2023-04-24T11:35:29;5.88;;;1.60;;
45936;SDS011;31649;46.510;6.498;2023-04-24T11:37:55;11.13;;;2.15;;
45936;SDS011;31649;46.510;6.498;2023-04-24T11:40:21;7.65;;;1.75;;
45936;SDS011;31649;46.510;6.498;2023-04-24T11:42:51;8.77;;;1.30;;
45936;SDS011;31649;46.510;6.498;2023-04-24T11:47:47;21.05;;;2.20;;
45936;SDS011;31649;46.510;6.498;2023-04-24T11:50:14;17.77;;;2.67;;
45936;SDS011;31649;46.510;6.498;2023-04-24T11:52:42;4.90;;;1.60;;
45936;SDS011;31649;46.510;6.498;2023-04-24T11:57:44;4.95;;;1.15;;
45936;SDS011;31649;46.510;6.498;2023-04-24T12:00:15;4.72;;;1.00;;
45936;SDS011;31649;46.510;6.498;2023-04-24T12:02:45;3.97;;;0.90;;
45936;SDS011;31649;46.510;6.498;2023-04-24T12:05:24;4.68;;;1.05;;
45936;SDS011;31649;46.510;6.498;2023-04-24T12:07:52;9.68;;;1.20;;
45936;SDS011;31649;46.510;6.498;2023-04-24T12:10:21;3.13;;;1.08;;
45936;SDS011;31649;46.510;6.498;2023-04-24T12:12:51;0.73;;;0.70;;
45936;SDS011;31649;46.510;6.498;2023-04-24T12:15:20;20.05;;;2.80;;
45936;SDS011;31649;46.510;6.498;2023-04-24T12:17:47;6.80;;;1.92;;
45936;SDS011;31649;46.510;6.498;2023-04-24T12:20:13;2.58;;;0.73;;
45936;SDS011;31649;46.510;6.498;2023-04-24T12:30:29;50.65;;;7.35;;
45936;SDS011;31649;46.510;6.498;2023-04-24T12:32:59;90.85;;;8.05;;
45936;SDS011;31649;46.510;6.498;2023-04-24T12:35:31;104.05;;;7.40;;
45936;SDS011;31649;46.510;6.498;2023-04-24T12:38:08;41.25;;;4.15;;
45936;SDS011;31649;46.510;6.498;2023-04-24T12:40:36;29.70;;;2.78;;
45936;SDS011;31649;46.510;6.498;2023-04-24T12:43:02;49.80;;;3.83;;
45936;SDS011;31649;46.510;6.498;2023-04-24T12:45:37;107.90;;;6.60;;
45936;SDS011;31649;46.510;6.498;2023-04-24T12:48:03;42.88;;;4.10;;
45936;SDS011;31649;46.510;6.498;2023-04-24T12:50:28;48.92;;;3.17;;
45936;SDS011;31649;46.510;6.498;2023-04-24T12:52:54;172.10;;;15.07;;
45936;SDS011;31649;46.510;6.498;2023-04-24T12:56:47;46.22;;;4.18;;
45936;SDS011;31649;46.510;6.498;2023-04-24T12:59:12;60.75;;;4.50;;
45936;SDS011;31649;46.510;6.498;2023-04-24T13:01:38;50.30;;;3.15;;
45936;SDS011;31649;46.510;6.498;2023-04-24T13:04:05;34.90;;;4.38;;
45936;SDS011;31649;46.510;6.498;2023-04-24T13:06:30;28.23;;;3.63;;
45936;SDS011;31649;46.510;6.498;2023-04-24T13:08:56;31.88;;;3.08;;
45936;SDS011;31649;46.510;6.498;2023-04-24T13:11:23;25.52;;;3.80;;
45936;SDS011;31649;46.510;6.498;2023-04-24T13:13:49;18.67;;;2.85;;
45936;SDS011;31649;46.510;6.498;2023-04-24T13:16:15;12.82;;;2.08;;
45936;SDS011;31649;46.510;6.498;2023-04-24T13:18:41;14.45;;;1.45;;
45936;SDS011;31649;46.510;6.498;2023-04-24T13:21:06;23.02;;;2.53;;
45936;SDS011;31649;46.510;6.498;2023-04-24T13:23:31;29.90;;;3.25;;
45936;SDS011;31649;46.510;6.498;2023-04-24T13:25:57;16.30;;;1.70;;
45936;SDS011;31649;46.510;6.498;2023-04-24T13:28:26;12.07;;;1.42;;
45936;SDS011;31649;46.510;6.498;2023-04-24T13:30:52;10.68;;;1.30;;
45936;SDS011;31649;46.510;6.498;2023-04-24T13:33:18;7.90;;;1.52;;
45936;SDS011;31649;46.510;6.498;2023-04-24T13:35:43;12.50;;;1.30;;
45936;SDS011;31649;46.510;6.498;2023-04-24T13:38:09;8.30;;;1.20;;
45936;SDS011;31649;46.510;6.498;2023-04-24T13:40:34;8.40;;;1.38;;
45936;SDS011;31649;46.510;6.498;2023-04-24T13:43:00;3.10;;;1.05;;
45936;SDS011;31649;46.510;6.498;2023-04-24T13:45:26;3.28;;;1.27;;
45936;SDS011;31649;46.510;6.498;2023-04-24T13:47:52;7.20;;;1.00;;
45936;SDS011;31649;46.510;6.498;2023-04-24T13:50:22;3.13;;;0.88;;
45936;SDS011;31649;46.510;6.498;2023-04-24T13:52:47;1.67;;;1.10;;
45936;SDS011;31649;46.510;6.498;2023-04-24T13:55:13;3.15;;;0.98;;
45936;SDS011;31649;46.510;6.498;2023-04-24T13:57:38;22.88;;;2.50;;
45936;SDS011;31649;46.510;6.498;2023-04-24T14:00:04;2.47;;;1.50;;
45936;SDS011;31649;46.510;6.498;2023-04-24T14:02:31;4.30;;;1.02;;
45936;SDS011;31649;46.510;6.498;2023-04-24T14:04:56;2.22;;;1.10;;
45936;SDS011;31649;46.510;6.498;2023-04-24T14:07:22;6.18;;;1.10;;
45936;SDS011;31649;46.510;6.498;2023-04-24T14:09:47;2.17;;;1.00;;
45936;SDS011;31649;46.510;6.498;2023-04-24T14:12:13;4.72;;;1.10;;
45936;SDS011;31649;46.510;6.498;2023-04-24T14:14:41;3.78;;;1.73;;
45936;SDS011;31649;46.510;6.498;2023-04-24T14:17:07;3.10;;;0.95;;
45936;SDS011;31649;46.510;6.498;2023-04-24T14:19:32;3.72;;;1.15;;
45936;SDS011;31649;46.510;6.498;2023-04-24T14:21:58;1.05;;;0.77;;
45936;SDS011;31649;46.510;6.498;2023-04-24T14:24:23;3.92;;;2.17;;
45936;SDS011;31649;46.510;6.498;2023-04-24T14:26:49;2.40;;;1.13;;
45936;SDS011;31649;46.510;6.498;2023-04-24T14:29:14;1.80;;;1.55;;
45936;SDS011;31649;46.510;6.498;2023-04-24T14:31:41;2.30;;;1.33;;
45936;SDS011;31649;46.510;6.498;2023-04-24T14:34:08;1.88;;;1.05;;
45936;SDS011;31649;46.510;6.498;2023-04-24T14:36:33;1.42;;;0.90;;
45936;SDS011;31649;46.510;6.498;2023-04-24T14:38:59;5.38;;;0.95;;
45936;SDS011;31649;46.510;6.498;2023-04-24T14:41:24;1.15;;;0.75;;
45936;SDS011;31649;46.510;6.498;2023-04-24T14:43:50;0.80;;;0.80;;
45936;SDS011;31649;46.510;6.498;2023-04-24T14:46:15;0.90;;;0.80;;
45936;SDS011;31649;46.510;6.498;2023-04-24T14:48:41;4.38;;;0.95;;
45936;SDS011;31649;46.510;6.498;2023-04-24T14:51:06;1.67;;;0.77;;
45936;SDS011;31649;46.510;6.498;2023-04-24T14:53:32;3.92;;;0.90;;
45936;SDS011;31649;46.510;6.498;2023-04-24T14:55:58;1.52;;;0.90;;
45936;SDS011;31649;46.510;6.498;2023-04-24T14:58:23;1.13;;;1.02;;
45936;SDS011;31649;46.510;6.498;2023-04-24T15:00:49;2.60;;;0.90;;
45936;SDS011;31649;46.510;6.498;2023-04-24T15:03:17;3.70;;;1.00;;
45936;SDS011;31649;46.510;6.498;2023-04-24T15:05:43;1.85;;;0.77;;
45936;SDS011;31649;46.510;6.498;2023-04-24T15:08:09;3.72;;;1.00;;
45936;SDS011;31649;46.510;6.498;2023-04-24T15:10:34;2.28;;;1.10;;
45936;SDS011;31649;46.510;6.498;2023-04-24T15:13:00;4.10;;;1.00;;
45936;SDS011;31649;46.510;6.498;2023-04-24T15:15:25;2.15;;;1.02;;
45936;SDS011;31649;46.510;6.498;2023-04-24T15:17:53;1.50;;;1.17;;
45936;SDS011;31649;46.510;6.498;2023-04-24T15:20:19;5.32;;;1.10;;
45936;SDS011;31649;46.510;6.498;2023-04-24T15:22:44;3.10;;;1.17;;
45936;SDS011;31649;46.510;6.498;2023-04-24T15:25:10;0.82;;;0.82;;
45936;SDS011;31649;46.510;6.498;2023-04-24T15:27:42;1.50;;;1.13;;
45936;SDS011;31649;46.510;6.498;2023-04-24T15:30:09;6.80;;;1.30;;
45936;SDS011;31649;46.510;6.498;2023-04-24T15:32:36;2.97;;;1.02;;
45936;SDS011;31649;46.510;6.498;2023-04-24T15:35:02;3.78;;;1.00;;
45936;SDS011;31649;46.510;6.498;2023-04-24T15:37:27;2.05;;;1.30;;
45936;SDS011;31649;46.510;6.498;2023-04-24T15:39:53;2.10;;;1.10;;
45936;SDS011;31649;46.510;6.498;2023-04-24T15:42:18;4.25;;;1.48;;
45936;SDS011;31649;46.510;6.498;2023-04-24T15:44:44;1.13;;;1.02;;
45936;SDS011;31649;46.510;6.498;2023-04-24T15:47:09;0.88;;;0.85;;
45936;SDS011;31649;46.510;6.498;2023-04-24T15:49:35;3.63;;;0.95;;
45936;SDS011;31649;46.510;6.498;2023-04-24T15:52:01;2.05;;;1.00;;
45936;SDS011;31649;46.510;6.498;2023-04-24T15:54:26;1.42;;;0.90;;
45936;SDS011;31649;46.510;6.498;2023-04-24T15:56:51;1.50;;;0.80;;
45936;SDS011;31649;46.510;6.498;2023-04-24T15:59:17;1.58;;;1.00;;
45936;SDS011;31649;46.510;6.498;2023-04-24T16:01:43;3.33;;;1.17;;
45936;SDS011;31649;46.510;6.498;2023-04-24T16:04:09;0.98;;;0.98;;
45936;SDS011;31649;46.510;6.498;2023-04-24T16:06:34;0.95;;;0.73;;
45936;SDS011;31649;46.510;6.498;2023-04-24T16:08:59;1.08;;;1.00;;
45936;SDS011;31649;46.510;6.498;2023-04-24T16:11:25;1.10;;;1.00;;
45936;SDS011;31649;46.510;6.498;2023-04-24T16:13:50;3.30;;;1.50;;
45936;SDS011;31649;46.510;6.498;2023-04-24T16:16:16;2.92;;;0.82;;
45936;SDS011;31649;46.510;6.498;2023-04-24T16:18:42;1.40;;;0.80;;
45936;SDS011;31649;46.510;6.498;2023-04-24T16:21:07;1.60;;;1.10;;
45936;SDS011;31649;46.510;6.498;2023-04-24T16:23:33;2.17;;;0.98;;
45936;SDS011;31649;46.510;6.498;2023-04-24T16:25:59;1.65;;;1.08;;
45936;SDS011;31649;46.510;6.498;2023-04-24T16:28:24;1.30;;;1.13;;
45936;SDS011;31649;46.510;6.498;2023-04-24T16:30:51;2.35;;;1.08;;
45936;SDS011;31649;46.510;6.498;2023-04-24T16:33:17;2.45;;;0.88;;
45936;SDS011;31649;46.510;6.498;2023-04-24T16:35:43;1.40;;;1.10;;
45936;SDS011;31649;46.510;6.498;2023-04-24T16:38:10;1.52;;;1.27;;
45936;SDS011;31649;46.510;6.498;2023-04-24T16:40:36;1.25;;;1.15;;
45936;SDS011;31649;46.510;6.498;2023-04-24T16:43:02;1.30;;;1.20;;
45936;SDS011;31649;46.510;6.498;2023-04-24T16:45:27;1.08;;;0.95;;
45936;SDS011;31649;46.510;6.498;2023-04-24T16:47:53;1.60;;;1.02;;
45936;SDS011;31649;46.510;6.498;2023-04-24T16:50:18;1.13;;;0.93;;
45936;SDS011;31649;46.510;6.498;2023-04-24T16:52:44;1.88;;;1.15;;
45936;SDS011;31649;46.510;6.498;2023-04-24T16:55:09;1.75;;;1.25;;
45936;SDS011;31649;46.510;6.498;2023-04-24T16:57:35;0.93;;;0.90;;
45936;SDS011;31649;46.510;6.498;2023-04-24T17:00:01;2.17;;;0.88;;
45936;SDS011;31649;46.510;6.498;2023-04-24T17:02:27;1.30;;;0.95;;
45936;SDS011;31649;46.510;6.498;2023-04-24T17:04:53;1.20;;;1.10;;
45936;SDS011;31649;46.510;6.498;2023-04-24T17:07:18;1.85;;;1.10;;
45936;SDS011;31649;46.510;6.498;2023-04-24T17:09:44;1.90;;;1.23;;
45936;SDS011;31649;46.510;6.498;2023-04-24T17:12:09;0.95;;;0.82;;
45936;SDS011;31649;46.510;6.498;2023-04-24T17:14:35;2.25;;;1.15;;
45936;SDS011;31649;46.510;6.498;2023-04-24T17:17:01;0.82;;;0.82;;
45936;SDS011;31649;46.510;6.498;2023-04-24T17:19:27;1.45;;;1.00;;
45936;SDS011;31649;46.510;6.498;2023-04-24T17:21:52;1.25;;;1.15;;
45936;SDS011;31649;46.510;6.498;2023-04-24T17:24:18;1.30;;;0.95;;
45936;SDS011;31649;46.510;6.498;2023-04-24T17:26:43;1.05;;;1.02;;
45936;SDS011;31649;46.510;6.498;2023-04-24T17:29:09;1.30;;;1.20;;
45936;SDS011;31649;46.510;6.498;2023-04-24T17:31:35;1.23;;;1.10;;
45936;SDS011;31649;46.510;6.498;2023-04-24T17:34:00;1.23;;;1.10;;
45936;SDS011;31649;46.510;6.498;2023-04-24T17:36:26;1.38;;;1.13;;
45936;SDS011;31649;46.510;6.498;2023-04-24T17:38:52;4.00;;;1.48;;
45936;SDS011;31649;46.510;6.498;2023-04-24T17:41:17;1.60;;;1.50;;
45936;SDS011;31649;46.510;6.498;2023-04-24T17:43:43;1.42;;;0.90;;
45936;SDS011;31649;46.510;6.498;2023-04-24T17:46:09;1.00;;;0.90;;
45936;SDS011;31649;46.510;6.498;2023-04-24T17:48:36;1.20;;;1.10;;
45936;SDS011;31649;46.510;6.498;2023-04-24T17:51:02;2.40;;;1.13;;
45936;SDS011;31649;46.510;6.498;2023-04-24T17:53:27;1.10;;;0.88;;
45936;SDS011;31649;46.510;6.498;2023-04-24T17:55:53;1.40;;;1.27;;
45936;SDS011;31649;46.510;6.498;2023-04-24T17:58:21;2.15;;;1.20;;
45936;SDS011;31649;46.510;6.498;2023-04-24T18:00:47;2.60;;;1.02;;
45936;SDS011;31649;46.510;6.498;2023-04-24T18:03:12;2.05;;;1.73;;
45936;SDS011;31649;46.510;6.498;2023-04-24T18:05:38;1.98;;;1.73;;
45936;SDS011;31649;46.510;6.498;2023-04-24T18:08:04;1.95;;;1.40;;
45936;SDS011;31649;46.510;6.498;2023-04-24T18:10:31;1.70;;;1.33;;
45936;SDS011;31649;46.510;6.498;2023-04-24T18:12:57;2.40;;;1.40;;
45936;SDS011;31649;46.510;6.498;2023-04-24T18:15:23;1.17;;;1.08;;
45936;SDS011;31649;46.510;6.498;2023-04-24T18:17:49;1.30;;;1.20;;
45936;SDS011;31649;46.510;6.498;2023-04-24T18:20:15;1.10;;;0.85;;
45936;SDS011;31649;46.510;6.498;2023-04-24T18:22:41;1.38;;;1.08;;
45936;SDS011;31649;46.510;6.498;2023-04-24T18:25:07;1.33;;;1.20;;
45936;SDS011;31649;46.510;6.498;2023-04-24T18:27:34;1.88;;;1.45;;
45936;SDS011;31649;46.510;6.498;2023-04-24T18:30:03;1.85;;;1.50;;
45936;SDS011;31649;46.510;6.498;2023-04-24T18:32:30;3.90;;;1.63;;
45936;SDS011;31649;46.510;6.498;2023-04-24T18:34:55;1.38;;;1.27;;
45936;SDS011;31649;46.510;6.498;2023-04-24T18:37:21;2.72;;;1.73;;
45936;SDS011;31649;46.510;6.498;2023-04-24T18:39:47;2.15;;;1.50;;
45936;SDS011;31649;46.510;6.498;2023-04-24T18:42:14;2.47;;;1.90;;
45936;SDS011;31649;46.510;6.498;2023-04-24T18:44:41;2.28;;;1.73;;
45936;SDS011;31649;46.510;6.498;2023-04-24T18:47:07;3.10;;;1.50;;
45936;SDS011;31649;46.510;6.498;2023-04-24T18:49:34;2.70;;;1.75;;
45936;SDS011;31649;46.510;6.498;2023-04-24T18:51:59;3.72;;;2.10;;
45936;SDS011;31649;46.510;6.498;2023-04-24T18:54:25;3.22;;;1.90;;
45936;SDS011;31649;46.510;6.498;2023-04-24T18:56:50;2.72;;;1.42;;
45936;SDS011;31649;46.510;6.498;2023-04-24T18:59:16;1.88;;;1.70;;
45936;SDS011;31649;46.510;6.498;2023-04-24T19:01:42;2.67;;;1.75;;
45936;SDS011;31649;46.510;6.498;2023-04-24T19:04:08;3.25;;;1.60;;
45936;SDS011;31649;46.510;6.498;2023-04-24T19:06:33;3.33;;;2.28;;
45936;SDS011;31649;46.510;6.498;2023-04-24T19:08:59;2.97;;;1.75;;
45936;SDS011;31649;46.510;6.498;2023-04-24T19:11:24;1.88;;;1.65;;
45936;SDS011;31649;46.510;6.498;2023-04-24T19:13:50;2.40;;;1.95;;
45936;SDS011;31649;46.510;6.498;2023-04-24T19:16:16;6.07;;;3.35;;
45936;SDS011;31649;46.510;6.498;2023-04-24T19:18:41;3.95;;;1.55;;
45936;SDS011;31649;46.510;6.498;2023-04-24T19:21:06;5.63;;;1.85;;
45936;SDS011;31649;46.510;6.498;2023-04-24T19:23:32;6.18;;;1.95;;
45936;SDS011;31649;46.510;6.498;2023-04-24T19:26:01;2.97;;;1.90;;
45936;SDS011;31649;46.510;6.498;2023-04-24T19:28:27;1.90;;;1.70;;
45936;SDS011;31649;46.510;6.498;2023-04-24T19:30:52;4.15;;;1.70;;
45936;SDS011;31649;46.510;6.498;2023-04-24T19:33:22;1.75;;;1.48;;
45936;SDS011;31649;46.510;6.498;2023-04-24T19:35:48;1.70;;;1.38;;
45936;SDS011;31649;46.510;6.498;2023-04-24T19:38:13;4.28;;;1.70;;
45936;SDS011;31649;46.510;6.498;2023-04-24T19:40:39;3.67;;;1.52;;
45936;SDS011;31649;46.510;6.498;2023-04-24T19:43:04;1.60;;;1.50;;
45936;SDS011;31649;46.510;6.498;2023-04-24T19:45:30;2.42;;;1.70;;
45936;SDS011;31649;46.510;6.498;2023-04-24T19:47:55;1.92;;;1.40;;
45936;SDS011;31649;46.510;6.498;2023-04-24T19:50:21;2.58;;;1.35;;
45936;SDS011;31649;46.510;6.498;2023-04-24T19:52:46;2.00;;;1.50;;
45936;SDS011;31649;46.510;6.498;2023-04-24T19:55:12;3.92;;;1.55;;
45936;SDS011;31649;46.510;6.498;2023-04-24T19:57:37;1.45;;;1.35;;
45936;SDS011;31649;46.510;6.498;2023-04-24T20:00:03;1.48;;;1.38;;
45936;SDS011;31649;46.510;6.498;2023-04-24T20:02:29;2.58;;;1.42;;
45936;SDS011;31649;46.510;6.498;2023-04-24T20:04:55;2.38;;;1.60;;
45936;SDS011;31649;46.510;6.498;2023-04-24T20:07:20;1.75;;;1.10;;
45936;SDS011;31649;46.510;6.498;2023-04-24T20:09:46;1.83;;;1.40;;
45936;SDS011;31649;46.510;6.498;2023-04-24T20:12:11;1.52;;;1.42;;
45936;SDS011;31649;46.510;6.498;2023-04-24T20:14:37;4.18;;;1.40;;
45936;SDS011;31649;46.510;6.498;2023-04-24T20:17:02;1.50;;;1.30;;
45936;SDS011;31649;46.510;6.498;2023-04-24T20:19:28;2.80;;;1.40;;
45936;SDS011;31649;46.510;6.498;2023-04-24T20:21:54;1.60;;;1.35;;
45936;SDS011;31649;46.510;6.498;2023-04-24T20:24:19;1.35;;;1.23;;
45936;SDS011;31649;46.510;6.498;2023-04-24T20:26:45;4.00;;;2.00;;
45936;SDS011;31649;46.510;6.498;2023-04-24T20:29:10;1.23;;;1.13;;
45936;SDS011;31649;46.510;6.498;2023-04-24T20:31:37;1.55;;;1.27;;
45936;SDS011;31649;46.510;6.498;2023-04-24T20:34:03;2.25;;;1.40;;
45936;SDS011;31649;46.510;6.498;2023-04-24T20:36:30;1.50;;;1.40;;
45936;SDS011;31649;46.510;6.498;2023-04-24T20:38:57;1.25;;;1.15;;
45936;SDS011;31649;46.510;6.498;2023-04-24T20:41:23;1.27;;;1.17;;
45936;SDS011;31649;46.510;6.498;2023-04-24T20:43:49;1.75;;;1.27;;
45936;SDS011;31649;46.510;6.498;2023-04-24T20:46:14;1.73;;;1.30;;
45936;SDS011;31649;46.510;6.498;2023-04-24T20:48:40;2.15;;;1.63;;
45936;SDS011;31649;46.510;6.498;2023-04-24T20:51:05;1.30;;;1.20;;
45936;SDS011;31649;46.510;6.498;2023-04-24T20:53:32;3.70;;;1.40;;